createdAt,value
2023-03-03T00:00:03.469Z,96840.44
2023-03-03T00:01:06.094Z,96846.38
2023-03-03T00:02:08.144Z,96841.09
2023-03-03T00:03:11.244Z,96845.94
2023-03-03T00:04:13.365Z,96840.28
2023-03-03T00:05:17.452Z,96843.66
2023-03-03T00:06:19.929Z,96848.97
2023-03-03T00:07:23.445Z,96838.66
2023-03-03T00:08:25.449Z,96844.13
2023-03-03T00:09:27.306Z,96840.72
2023-03-03T00:10:29.224Z,96850.09
2023-03-03T00:11:31.175Z,96845.72
2023-03-03T00:12:35.117Z,96848.97
2023-03-03T00:13:50.835Z,96845.44
2023-03-03T00:14:53.340Z,96853.31
2023-03-03T00:15:59.064Z,96845.09
2023-03-03T00:17:02.036Z,96854.44
2023-03-03T00:18:12.423Z,96853.47
2023-03-03T00:19:21.419Z,96855.09
2023-03-03T00:20:23.705Z,96850.56
2023-03-03T00:21:29.700Z,96849.44
2023-03-03T00:22:31.731Z,96852.81
2023-03-03T00:23:37.378Z,96854.44
2023-03-03T00:24:39.234Z,96855.25
2023-03-03T00:25:43.564Z,96849.28
2023-03-03T00:26:50.583Z,96857.69
2023-03-03T00:27:52.439Z,96858.47
2023-03-03T00:28:54.974Z,96857.97
2023-03-03T00:29:57.972Z,96862.81
2023-03-03T00:31:00.975Z,96863.13
2023-03-03T00:32:23.181Z,96861.69
2023-03-03T00:33:29.573Z,96864.41
2023-03-03T00:34:31.553Z,96867.13
2023-03-03T00:35:36.068Z,96864.88
2023-03-03T00:36:38.666Z,96865.78
2023-03-03T00:37:41.501Z,96875.94
2023-03-03T00:38:43.793Z,96867.03
2023-03-03T00:39:45.583Z,96871.25
2023-03-03T00:40:48.323Z,96865.25
2023-03-03T00:41:50.158Z,96867.81
2023-03-03T00:43:01.023Z,96871.03
2023-03-03T00:44:18.047Z,96870.59
2023-03-03T00:45:43.306Z,96863.00
2023-03-03T00:46:45.148Z,96866.88
2023-03-03T00:47:46.993Z,96861.06
2023-03-03T00:48:49.774Z,96873.63
2023-03-03T00:49:51.868Z,96869.28
2023-03-03T00:50:55.025Z,96862.22
2023-03-03T00:51:56.822Z,96864.94
2023-03-03T00:52:58.590Z,96872.03
2023-03-03T00:54:00.681Z,96862.22
2023-03-03T00:55:03.192Z,96862.03
2023-03-03T00:56:05.122Z,96863.81
2023-03-03T00:57:06.993Z,96867.19
2023-03-03T00:58:09.267Z,96858.03
2023-03-03T00:59:11.187Z,96863.84
2023-03-03T01:00:13.566Z,96860.63
2023-03-03T01:01:16.065Z,96855.97
2023-03-03T01:02:18.081Z,96869.22
2023-03-03T01:03:21.953Z,96863.75
2023-03-03T01:04:23.842Z,96859.09
2023-03-03T01:05:25.744Z,96857.16
2023-03-03T01:06:28.253Z,96863.59
2023-03-03T01:07:30.125Z,96863.75
2023-03-03T01:08:32.041Z,96861.00
2023-03-03T01:09:33.902Z,96859.88
2023-03-03T01:10:38.069Z,96865.97
2023-03-03T01:11:39.933Z,96867.59
2023-03-03T01:12:41.996Z,96863.25
2023-03-03T01:13:46.647Z,96862.13
2023-03-03T01:14:49.607Z,96859.72
2023-03-03T01:15:52.021Z,96861.78
2023-03-03T01:16:54.137Z,96859.88
2023-03-03T01:17:56.274Z,96859.38
2023-03-03T01:18:58.180Z,96868.28
2023-03-03T01:20:00.172Z,96855.72
2023-03-03T01:21:02.440Z,96851.00
2023-03-03T01:22:04.323Z,96853.25
2023-03-03T01:23:06.362Z,96861.63
2023-03-03T01:24:08.199Z,96856.16
2023-03-03T01:25:10.591Z,96854.22
2023-03-03T01:26:12.515Z,96849.56
2023-03-03T01:27:14.329Z,96850.84
2023-03-03T01:28:16.184Z,96852.16
2023-03-03T01:29:18.013Z,96852.78
2023-03-03T01:30:20.216Z,96849.09
2023-03-03T01:31:22.160Z,96856.81
2023-03-03T01:32:24.910Z,96852.00
2023-03-03T01:33:26.817Z,96855.53
2023-03-03T01:34:28.684Z,96853.44
2023-03-03T01:35:31.090Z,96851.78
2023-03-03T01:36:33.189Z,96858.38
2023-03-03T01:37:36.478Z,96854.31
2023-03-03T01:38:38.883Z,96853.38
2023-03-03T01:39:40.747Z,96859.47
2023-03-03T01:40:42.832Z,96854.66
2023-03-03T01:41:44.730Z,96857.22
2023-03-03T01:42:46.514Z,96856.44
2023-03-03T01:43:49.622Z,96855.28
2023-03-03T01:45:10.482Z,96864.13
2023-03-03T01:46:24.290Z,96853.31
2023-03-03T01:47:30.245Z,96857.97
2023-03-03T01:48:34.749Z,96859.91
2023-03-03T01:49:43.071Z,96863.28
2023-03-03T01:51:02.727Z,96868.56
2023-03-03T01:52:11.711Z,96862.78
2023-03-03T01:53:16.462Z,96863.28
2023-03-03T01:54:39.488Z,96862.97
2023-03-03T01:55:42.544Z,96865.84
2023-03-03T01:56:44.836Z,96861.97
2023-03-03T01:57:50.345Z,96865.69
2023-03-03T01:58:55.185Z,96870.81
2023-03-03T01:59:58.083Z,96861.03
2023-03-03T02:01:05.001Z,96864.91
2023-03-03T02:02:08.344Z,96858.78
2023-03-03T02:03:11.387Z,96865.22
2023-03-03T02:04:13.640Z,96860.59
2023-03-03T02:05:16.516Z,96866.38
2023-03-03T02:06:20.689Z,96860.44
2023-03-03T02:07:23.593Z,96867.19
2023-03-03T02:08:29.050Z,96866.25
2023-03-03T02:09:49.696Z,96859.00
2023-03-03T02:10:52.054Z,96860.47
2023-03-03T02:11:57.494Z,96858.84
2023-03-03T02:13:00.199Z,96855.94
2023-03-03T02:14:02.096Z,96859.47
2023-03-03T02:15:15.721Z,96859.63
2023-03-03T02:16:17.696Z,96861.84
2023-03-03T02:17:19.757Z,96859.75
2023-03-03T02:18:21.693Z,96860.41
2023-03-03T02:19:42.048Z,96860.91
2023-03-03T02:20:53.321Z,96863.50
2023-03-03T02:21:55.150Z,96862.34
2023-03-03T02:23:01.952Z,96858.44
2023-03-03T02:24:07.981Z,96864.22
2023-03-03T02:25:13.949Z,96859.03
2023-03-03T02:26:16.925Z,96857.72
2023-03-03T02:27:18.973Z,96857.91
2023-03-03T02:28:20.916Z,96862.59
2023-03-03T02:29:22.775Z,96865.16
2023-03-03T02:30:25.484Z,96863.22
2023-03-03T02:31:29.218Z,96863.06
2023-03-03T02:32:31.088Z,96861.28
2023-03-03T02:33:32.952Z,96866.16
2023-03-03T02:34:45.884Z,96862.25
2023-03-03T02:35:47.716Z,96863.84
2023-03-03T02:36:49.609Z,96861.59
2023-03-03T02:37:52.022Z,96869.00
2023-03-03T02:39:05.127Z,96862.91
2023-03-03T02:40:07.945Z,96867.72
2023-03-03T02:41:15.384Z,96873.38
2023-03-03T02:42:22.401Z,96868.06
2023-03-03T02:43:25.975Z,96867.88
2023-03-03T02:44:28.915Z,96870.31
2023-03-03T02:45:30.794Z,96868.53
2023-03-03T02:46:34.147Z,96863.09
2023-03-03T02:47:36.029Z,96873.72
2023-03-03T02:48:37.883Z,96868.94
2023-03-03T02:49:39.936Z,96869.28
2023-03-03T02:50:41.849Z,96873.97
2023-03-03T02:51:44.151Z,96874.47
2023-03-03T02:52:46.095Z,96872.38
2023-03-03T02:53:47.994Z,96867.22
2023-03-03T02:54:49.826Z,96875.09
2023-03-03T02:55:51.688Z,96875.38
2023-03-03T02:56:53.608Z,96868.56
2023-03-03T02:57:55.726Z,96873.25
2023-03-03T02:58:57.748Z,96870.97
2023-03-03T02:59:59.576Z,96866.19
2023-03-03T03:01:01.513Z,96869.91
2023-03-03T03:02:04.145Z,96872.03
2023-03-03T03:03:06.050Z,96863.66
2023-03-03T03:04:12.482Z,96872.56
2023-03-03T03:05:14.420Z,96875.13
2023-03-03T03:06:16.337Z,96876.22
2023-03-03T03:07:18.227Z,96869.16
2023-03-03T03:08:20.239Z,96867.69
2023-03-03T03:09:23.472Z,96875.44
2023-03-03T03:10:25.357Z,96870.28
2023-03-03T03:11:27.300Z,96865.91
2023-03-03T03:12:29.112Z,96862.25
2023-03-03T03:13:32.182Z,96864.31
2023-03-03T03:14:34.022Z,96870.59
2023-03-03T03:15:36.379Z,96862.69
2023-03-03T03:16:38.312Z,96865.63
2023-03-03T03:17:40.251Z,96870.44
2023-03-03T03:18:42.203Z,96865.44
2023-03-03T03:19:44.118Z,96866.88
2023-03-03T03:20:48.335Z,96866.34
2023-03-03T03:21:50.556Z,96865.22
2023-03-03T03:22:52.519Z,96863.50
2023-03-03T03:23:54.474Z,96864.44
2023-03-03T03:24:56.401Z,96870.25
2023-03-03T03:25:58.209Z,96865.88
2023-03-03T03:26:59.982Z,96876.81
2023-03-03T03:28:02.087Z,96861.50
2023-03-03T03:29:04.386Z,96868.78
2023-03-03T03:30:06.578Z,96870.91
2023-03-03T03:31:10.917Z,96865.75
2023-03-03T03:32:13.108Z,96864.63
2023-03-03T03:33:14.957Z,96868.16
2023-03-03T03:34:16.969Z,96869.78
2023-03-03T03:35:18.941Z,96868.31
2023-03-03T03:36:20.815Z,96870.09
2023-03-03T03:37:22.771Z,96868.28
2023-03-03T03:38:26.089Z,96876.78
2023-03-03T03:39:28.060Z,96877.75
2023-03-03T03:40:29.898Z,96879.34
2023-03-03T03:41:31.734Z,96866.66
2023-03-03T03:42:33.621Z,96873.44
2023-03-03T03:43:35.509Z,96878.88
2023-03-03T03:44:37.544Z,96880.38
2023-03-03T03:45:39.617Z,96889.56
2023-03-03T03:46:41.644Z,96883.59
2023-03-03T03:47:43.470Z,96885.72
2023-03-03T03:48:46.018Z,96888.63
2023-03-03T03:49:47.901Z,96881.06
2023-03-03T03:50:50.453Z,96885.06
2023-03-03T03:51:52.385Z,96888.91
2023-03-03T03:52:54.227Z,96890.31
2023-03-03T03:53:56.165Z,96891.13
2023-03-03T03:54:58.067Z,96890.81
2023-03-03T03:55:59.912Z,96885.19
2023-03-03T03:57:02.397Z,96892.97
2023-03-03T03:58:04.323Z,96888.16
2023-03-03T03:59:07.437Z,96884.31
2023-03-03T04:00:10.834Z,96891.72
2023-03-03T04:01:12.632Z,96887.53
2023-03-03T04:02:14.625Z,96882.06
2023-03-03T04:03:16.943Z,96878.22
2023-03-03T04:04:18.918Z,96883.06
2023-03-03T04:05:20.945Z,96882.13
2023-03-03T04:06:22.889Z,96886.94
2023-03-03T04:07:24.733Z,96884.38
2023-03-03T04:08:26.676Z,96884.38
2023-03-03T04:09:28.784Z,96884.38
2023-03-03T04:10:30.907Z,96880.78
2023-03-03T04:11:32.871Z,96887.84
2023-03-03T04:12:38.747Z,96883.00
2023-03-03T04:13:40.719Z,96887.84
2023-03-03T04:14:42.632Z,96880.94
2023-03-03T04:15:44.512Z,96885.13
2023-03-03T04:16:46.348Z,96885.44
2023-03-03T04:17:48.181Z,96889.28
2023-03-03T04:18:50.040Z,96887.47
2023-03-03T04:19:53.594Z,96890.72
2023-03-03T04:20:55.701Z,96884.91
2023-03-03T04:21:57.536Z,96889.41
2023-03-03T04:22:59.440Z,96887.28
2023-03-03T04:24:01.388Z,96886.03
2023-03-03T04:25:05.580Z,96885.84
2023-03-03T04:26:07.974Z,96884.25
2023-03-03T04:27:09.872Z,96885.38
2023-03-03T04:28:11.716Z,96882.94
2023-03-03T04:29:13.785Z,96886.19
2023-03-03T04:30:16.201Z,96892.63
2023-03-03T04:31:18.256Z,96883.13
2023-03-03T04:32:20.208Z,96875.91
2023-03-03T04:33:22.152Z,96878.47
2023-03-03T04:34:24.134Z,96888.13
2023-03-03T04:35:26.026Z,96880.25
2023-03-03T04:36:27.954Z,96887.47
2023-03-03T04:37:29.821Z,96886.34
2023-03-03T04:38:31.803Z,96882.19
2023-03-03T04:39:33.655Z,96880.69
2023-03-03T04:40:35.552Z,96886.84
2023-03-03T04:41:37.483Z,96888.91
2023-03-03T04:42:39.387Z,96888.41
2023-03-03T04:43:41.308Z,96889.69
2023-03-03T04:44:43.231Z,96887.34
2023-03-03T04:45:45.077Z,96887.50
2023-03-03T04:46:47.034Z,96892.19
2023-03-03T04:47:48.918Z,96893.00
2023-03-03T04:48:50.795Z,96891.06
2023-03-03T04:49:53.361Z,96886.38
2023-03-03T04:50:55.256Z,96888.81
2023-03-03T04:51:57.852Z,96901.19
2023-03-03T04:52:59.844Z,96890.38
2023-03-03T04:54:01.699Z,96893.28
2023-03-03T04:55:04.264Z,96896.38
2023-03-03T04:56:06.292Z,96905.22
2023-03-03T04:57:09.705Z,96892.84
2023-03-03T04:58:11.795Z,96897.22
2023-03-03T04:59:14.005Z,96896.22
2023-03-03T05:00:16.141Z,96895.44
2023-03-03T05:01:19.808Z,96898.66
2023-03-03T05:02:21.784Z,96905.88
2023-03-03T05:03:24.103Z,96909.75
2023-03-03T05:04:26.074Z,96910.06
2023-03-03T05:05:28.092Z,96905.56
2023-03-03T05:06:30.157Z,96902.66
2023-03-03T05:07:32.100Z,96902.38
2023-03-03T05:08:34.193Z,96901.25
2023-03-03T05:09:36.227Z,96909.28
2023-03-03T05:10:38.162Z,96903.50
2023-03-03T05:11:39.993Z,96909.44
2023-03-03T05:12:41.884Z,96907.53
2023-03-03T05:13:43.742Z,96902.69
2023-03-03T05:14:45.583Z,96902.41
2023-03-03T05:15:51.779Z,96906.41
2023-03-03T05:16:53.791Z,96908.34
2023-03-03T05:17:56.719Z,96901.25
2023-03-03T05:18:58.533Z,96910.38
2023-03-03T05:20:00.424Z,96911.84
2023-03-03T05:21:02.384Z,96911.66
2023-03-03T05:22:04.296Z,96908.47
2023-03-03T05:23:06.350Z,96910.75
2023-03-03T05:24:12.680Z,96913.31
2023-03-03T05:25:14.747Z,96912.34
2023-03-03T05:26:17.320Z,96903.81
2023-03-03T05:27:19.174Z,96905.91
2023-03-03T05:28:21.394Z,96917.38
2023-03-03T05:29:23.416Z,96907.06
2023-03-03T05:30:25.287Z,96909.47
2023-03-03T05:31:27.661Z,96911.22
2023-03-03T05:32:29.674Z,96912.63
2023-03-03T05:33:31.609Z,96921.03
2023-03-03T05:34:33.484Z,96911.22
2023-03-03T05:35:35.464Z,96917.50
2023-03-03T05:36:37.357Z,96918.63
2023-03-03T05:37:42.941Z,96919.75
2023-03-03T05:38:44.908Z,96925.22
2023-03-03T05:39:46.801Z,96923.75
2023-03-03T05:40:48.912Z,96922.94
2023-03-03T05:41:50.773Z,96921.63
2023-03-03T05:42:53.030Z,96926.63
2023-03-03T05:43:55.050Z,96920.94
2023-03-03T05:44:56.919Z,96924.03
2023-03-03T05:45:59.363Z,96929.22
2023-03-03T05:47:01.192Z,96927.63
2023-03-03T05:48:04.354Z,96924.75
2023-03-03T05:49:06.313Z,96935.56
2023-03-03T05:50:08.452Z,96930.09
2023-03-03T05:51:10.436Z,96928.69
2023-03-03T05:52:12.481Z,96928.97
2023-03-03T05:53:14.359Z,96934.59
2023-03-03T05:54:16.304Z,96930.09
2023-03-03T05:55:18.705Z,96934.13
2023-03-03T05:56:20.684Z,96929.78
2023-03-03T05:57:22.600Z,96928.19
2023-03-03T05:58:24.571Z,96932.34
2023-03-03T05:59:26.494Z,96933.00
2023-03-03T06:00:28.404Z,96925.44
2023-03-03T06:01:30.992Z,96931.13
2023-03-03T06:02:33.070Z,96932.56
2023-03-03T06:03:35.165Z,96929.50
2023-03-03T06:04:37.075Z,96936.94
2023-03-03T06:05:38.872Z,96932.09
2023-03-03T06:06:41.382Z,96941.59
2023-03-03T06:07:43.365Z,96944.69
2023-03-03T06:08:45.328Z,96948.22
2023-03-03T06:09:47.242Z,96951.78
2023-03-03T06:10:49.140Z,96952.72
2023-03-03T06:11:53.140Z,96957.06
2023-03-03T06:12:55.518Z,96951.78
2023-03-03T06:13:57.474Z,96954.03
2023-03-03T06:14:59.418Z,96956.59
2023-03-03T06:16:01.350Z,96959.81
2023-03-03T06:17:03.331Z,96963.19
2023-03-03T06:18:05.229Z,96959.16
2023-03-03T06:19:07.047Z,96960.59
2023-03-03T06:20:09.166Z,96967.06
2023-03-03T06:21:11.062Z,96965.31
2023-03-03T06:22:12.967Z,96964.16
2023-03-03T06:23:14.803Z,96968.00
2023-03-03T06:24:16.758Z,96971.84
2023-03-03T06:25:19.013Z,96964.75
2023-03-03T06:26:20.962Z,96976.16
2023-03-03T06:27:22.947Z,96974.41
2023-03-03T06:28:25.350Z,96976.81
2023-03-03T06:29:27.697Z,96976.50
2023-03-03T06:30:31.155Z,96976.03
2023-03-03T06:31:33.150Z,96974.78
2023-03-03T06:32:35.400Z,96972.69
2023-03-03T06:33:38.611Z,96969.97
2023-03-03T06:34:40.533Z,96976.28
2023-03-03T06:35:42.624Z,96975.66
2023-03-03T06:36:45.274Z,96969.53
2023-03-03T06:37:47.118Z,96976.13
2023-03-03T06:38:49.074Z,96974.88
2023-03-03T06:39:52.986Z,96984.75
2023-03-03T06:40:54.880Z,96975.72
2023-03-03T06:41:56.811Z,96987.66
2023-03-03T06:42:58.648Z,96987.66
2023-03-03T06:44:00.590Z,96982.19
2023-03-03T06:45:02.606Z,96977.53
2023-03-03T06:46:05.342Z,96978.34
2023-03-03T06:47:07.316Z,96979.63
2023-03-03T06:48:09.318Z,96979.00
2023-03-03T06:49:11.267Z,96986.41
2023-03-03T06:50:13.296Z,96979.97
2023-03-03T06:51:30.189Z,96983.06
2023-03-03T06:52:32.128Z,96988.06
2023-03-03T06:53:35.195Z,96987.13
2023-03-03T06:54:37.051Z,96988.88
2023-03-03T06:55:39.103Z,96989.03
2023-03-03T06:56:41.574Z,96998.53
2023-03-03T06:57:43.333Z,96999.00
2023-03-03T06:58:45.300Z,96991.56
2023-03-03T06:59:49.690Z,96988.31
2023-03-03T07:00:57.529Z,96988.31
2023-03-03T07:01:59.633Z,96984.16
2023-03-03T07:03:13.579Z,96986.06
2023-03-03T07:04:32.146Z,96991.72
2023-03-03T07:05:34.886Z,96987.97
2023-03-03T07:06:37.706Z,96990.19
2023-03-03T07:07:39.572Z,96993.44
2023-03-03T07:08:41.849Z,96997.31
2023-03-03T07:09:48.146Z,96996.22
2023-03-03T07:10:50.825Z,96995.25
2023-03-03T07:11:54.397Z,96994.75
2023-03-03T07:12:59.026Z,96991.22
2023-03-03T07:14:00.941Z,96992.69
2023-03-03T07:15:13.391Z,97002.22
2023-03-03T07:16:16.902Z,96996.69
2023-03-03T07:17:20.153Z,96999.09
2023-03-03T07:18:22.047Z,96998.78
2023-03-03T07:19:36.415Z,97008.31
2023-03-03T07:20:39.881Z,97013.97
2023-03-03T07:21:41.859Z,97008.16
2023-03-03T07:22:43.764Z,97013.03
2023-03-03T07:23:47.190Z,97016.25
2023-03-03T07:24:57.850Z,97009.00
2023-03-03T07:25:59.688Z,97012.41
2023-03-03T07:27:08.301Z,97011.44
2023-03-03T07:28:23.040Z,97012.06
2023-03-03T07:29:26.869Z,97012.72
2023-03-03T07:30:29.965Z,97015.81
2023-03-03T07:31:35.908Z,97020.31
2023-03-03T07:32:42.505Z,97015.81
2023-03-03T07:33:46.220Z,97012.28
2023-03-03T07:34:48.969Z,97017.59
2023-03-03T07:35:51.193Z,97019.72
2023-03-03T07:36:55.234Z,97017.63
2023-03-03T07:37:57.115Z,97022.97
2023-03-03T07:39:00.887Z,97021.69
2023-03-03T07:40:09.146Z,97024.09
2023-03-03T07:41:21.179Z,97023.78
2023-03-03T07:42:28.151Z,97024.28
2023-03-03T07:43:37.243Z,97022.69
2023-03-03T07:44:40.739Z,97008.94
2023-03-03T07:45:43.973Z,97017.50
2023-03-03T07:46:48.599Z,97018.59
2023-03-03T07:47:50.446Z,97019.94
2023-03-03T07:48:53.002Z,97031.88
2023-03-03T07:49:56.465Z,97018.31
2023-03-03T07:51:04.401Z,97023.81
2023-03-03T07:52:25.766Z,97026.22
2023-03-03T07:53:29.912Z,97024.78
2023-03-03T07:54:34.735Z,97029.16
2023-03-03T07:55:38.142Z,97025.59
2023-03-03T07:56:40.132Z,97030.28
2023-03-03T07:57:41.977Z,97026.44
2023-03-03T07:58:44.056Z,97025.94
2023-03-03T07:59:50.174Z,97027.88
2023-03-03T08:01:10.726Z,97026.72
2023-03-03T08:02:28.802Z,97030.47
2023-03-03T08:03:31.511Z,97019.31
2023-03-03T08:04:41.845Z,97022.84
2023-03-03T08:05:44.612Z,97032.41
2023-03-03T08:06:53.353Z,97024.16
2023-03-03T08:08:03.187Z,97025.78
2023-03-03T08:09:11.165Z,97034.97
2023-03-03T08:10:33.377Z,97025.94
2023-03-03T08:11:35.330Z,97032.38
2023-03-03T08:12:37.203Z,97025.94
2023-03-03T08:13:39.590Z,97018.66
2023-03-03T08:14:41.487Z,97017.53
2023-03-03T08:15:45.244Z,97019.63
2023-03-03T08:16:47.144Z,97024.63
2023-03-03T08:17:49.800Z,97025.63
2023-03-03T08:18:53.864Z,97027.22
2023-03-03T08:19:56.457Z,97026.25
2023-03-03T08:21:00.287Z,97023.19
2023-03-03T08:22:09.729Z,97028.19
2023-03-03T08:23:12.389Z,97033.38
2023-03-03T08:24:14.873Z,97033.19
2023-03-03T08:25:16.802Z,97035.13
2023-03-03T08:26:19.458Z,97031.25
2023-03-03T08:27:21.283Z,97034.03
2023-03-03T08:28:23.252Z,97038.22
2023-03-03T08:29:25.234Z,97033.84
2023-03-03T08:30:27.143Z,97039.19
2023-03-03T08:31:40.672Z,97030.28
2023-03-03T08:32:43.704Z,97034.97
2023-03-03T08:33:46.301Z,97034.97
2023-03-03T08:34:48.260Z,97027.06
2023-03-03T08:35:50.721Z,97030.28
2023-03-03T08:36:52.590Z,97035.16
2023-03-03T08:37:54.450Z,97028.34
2023-03-03T08:38:56.919Z,97028.50
2023-03-03T08:39:58.892Z,97030.63
2023-03-03T08:41:00.901Z,97033.84
2023-03-03T08:42:02.773Z,97031.41
2023-03-03T08:43:04.705Z,97036.91
2023-03-03T08:44:06.898Z,97034.78
2023-03-03T08:45:08.936Z,97039.47
2023-03-03T08:46:12.075Z,97038.00
2023-03-03T08:47:13.915Z,97040.78
2023-03-03T08:48:15.864Z,97031.88
2023-03-03T08:49:17.679Z,97038.19
2023-03-03T08:50:20.204Z,97041.72
2023-03-03T08:51:22.070Z,97038.81
2023-03-03T08:52:23.931Z,97041.91
2023-03-03T08:53:26.243Z,97037.72
2023-03-03T08:54:28.216Z,97047.56
2023-03-03T08:55:30.444Z,97045.94
2023-03-03T08:56:32.342Z,97045.59
2023-03-03T08:57:34.953Z,97043.66
2023-03-03T08:58:36.887Z,97034.75
2023-03-03T08:59:39.436Z,97040.25
2023-03-03T09:00:41.669Z,97037.97
2023-03-03T09:01:45.093Z,97038.94
2023-03-03T09:02:47.308Z,97035.38
2023-03-03T09:03:49.648Z,97037.47
2023-03-03T09:04:51.717Z,97038.91
2023-03-03T09:05:53.662Z,97042.78
2023-03-03T09:06:55.527Z,97047.16
2023-03-03T09:07:57.758Z,97040.66
2023-03-03T09:08:59.652Z,97044.22
2023-03-03T09:10:01.553Z,97045.34
2023-03-03T09:11:04.258Z,97041.47
2023-03-03T09:12:19.508Z,97038.34
2023-03-03T09:13:21.488Z,97039.00
2023-03-03T09:14:24.680Z,97040.28
2023-03-03T09:15:29.336Z,97038.16
2023-03-03T09:16:35.515Z,97041.06
2023-03-03T09:17:38.027Z,97044.31
2023-03-03T09:18:40.065Z,97034.75
2023-03-03T09:19:41.920Z,97044.09
2023-03-03T09:20:45.397Z,97046.69
2023-03-03T09:21:47.490Z,97039.91
2023-03-03T09:22:51.107Z,97044.47
2023-03-03T09:23:57.617Z,97041.53
2023-03-03T09:25:00.320Z,97044.09
2023-03-03T09:26:21.484Z,97039.59
2023-03-03T09:27:31.000Z,97048.97
2023-03-03T09:28:32.919Z,97045.09
2023-03-03T09:29:38.575Z,97040.22
2023-03-03T09:30:49.508Z,97046.69
2023-03-03T09:31:53.185Z,97041.94
2023-03-03T09:32:56.533Z,97047.59
2023-03-03T09:33:59.935Z,97046.63
2023-03-03T09:35:21.763Z,97037.34
2023-03-03T09:36:25.920Z,97047.06
2023-03-03T09:37:32.685Z,97039.78
2023-03-03T09:38:36.339Z,97050.16
2023-03-03T09:39:38.285Z,97044.97
2023-03-03T09:40:49.270Z,97039.78
2023-03-03T09:42:02.606Z,97043.84
2023-03-03T09:43:13.989Z,97047.69
2023-03-03T09:44:35.148Z,97044.22
2023-03-03T09:45:37.038Z,97047.41
2023-03-03T09:46:57.557Z,97045.75
2023-03-03T09:47:59.412Z,97045.53
2023-03-03T09:49:12.260Z,97052.59
2023-03-03T09:50:30.751Z,97054.50
2023-03-03T09:51:42.116Z,97043.44
2023-03-03T09:53:04.301Z,97049.34
2023-03-03T09:54:24.694Z,97050.00
2023-03-03T09:55:37.128Z,97058.22
2023-03-03T09:56:45.015Z,97059.50
2023-03-03T09:58:09.657Z,97056.38
2023-03-03T09:59:18.465Z,97055.94
2023-03-03T10:00:28.012Z,97060.50
2023-03-03T10:01:48.604Z,97050.75
2023-03-03T10:03:09.199Z,97053.97
2023-03-03T10:04:25.502Z,97053.34
2023-03-03T10:05:53.417Z,97056.56
2023-03-03T10:07:14.154Z,97057.53
2023-03-03T10:08:19.154Z,97053.78
2023-03-03T10:09:41.750Z,97050.84
2023-03-03T10:10:50.040Z,97045.75
2023-03-03T10:12:10.808Z,97047.00
2023-03-03T10:13:31.704Z,97045.97
2023-03-03T10:14:52.155Z,97044.44
2023-03-03T10:16:04.175Z,97045.97
2023-03-03T10:17:24.621Z,97051.06
2023-03-03T10:18:46.603Z,97043.19
2023-03-03T10:19:48.491Z,97048.13
2023-03-03T10:21:02.177Z,97048.41
2023-03-03T10:22:10.111Z,97046.69
2023-03-03T10:23:24.582Z,97052.78
2023-03-03T10:24:29.450Z,97049.63
2023-03-03T10:25:42.810Z,97054.09
2023-03-03T10:27:13.433Z,97050.16
2023-03-03T10:28:34.279Z,97051.06
2023-03-03T10:29:42.182Z,97051.13
2023-03-03T10:31:04.768Z,97053.78
2023-03-03T10:32:18.584Z,97051.44
2023-03-03T10:33:28.949Z,97057.91
2023-03-03T10:34:52.182Z,97044.28
2023-03-03T10:36:07.484Z,97057.91
2023-03-03T10:37:14.604Z,97055.91
2023-03-03T10:38:30.293Z,97061.28
2023-03-03T10:39:51.764Z,97055.91
2023-03-03T10:40:53.573Z,97058.88
2023-03-03T10:42:08.402Z,97060.31
2023-03-03T10:43:12.357Z,97046.75
2023-03-03T10:44:32.156Z,97057.69
2023-03-03T10:45:41.309Z,97048.84
2023-03-03T10:46:52.336Z,97049.34
2023-03-03T10:48:19.115Z,97049.22
2023-03-03T10:49:30.249Z,97047.84
2023-03-03T10:50:35.919Z,97045.88
2023-03-03T10:51:43.849Z,97048.34
2023-03-03T10:53:15.546Z,97040.78
2023-03-03T10:54:20.412Z,97042.81
2023-03-03T10:55:34.304Z,97043.25
2023-03-03T10:56:52.586Z,97035.22
2023-03-03T10:57:59.133Z,97038.50
2023-03-03T10:59:01.642Z,97043.00
2023-03-03T11:00:23.094Z,97036.25
2023-03-03T11:01:45.649Z,97040.69
2023-03-03T11:02:47.537Z,97030.38
2023-03-03T11:04:01.384Z,97030.03
2023-03-03T11:05:06.350Z,97030.03
2023-03-03T11:06:17.425Z,97025.63
2023-03-03T11:07:19.259Z,97036.25
2023-03-03T11:08:36.348Z,97034.47
2023-03-03T11:09:59.050Z,97034.25
2023-03-03T11:11:08.229Z,97031.25
2023-03-03T11:12:13.160Z,97026.66
2023-03-03T11:13:24.138Z,97026.91
2023-03-03T11:14:37.316Z,97025.94
2023-03-03T11:15:58.526Z,97023.44
2023-03-03T11:17:09.865Z,97018.47
2023-03-03T11:18:30.415Z,97025.72
2023-03-03T11:19:53.084Z,97016.69
2023-03-03T11:21:16.165Z,97021.09
2023-03-03T11:22:44.327Z,97021.91
2023-03-03T11:24:01.170Z,97013.47
2023-03-03T11:25:26.381Z,97009.81
2023-03-03T11:26:34.275Z,97014.44
2023-03-03T11:27:38.566Z,97008.84
2023-03-03T11:28:41.045Z,97008.63
2023-03-03T11:29:50.392Z,97005.38
2023-03-03T11:31:03.351Z,97000.75
2023-03-03T11:32:11.321Z,97000.28
2023-03-03T11:33:18.373Z,96998.03
2023-03-03T11:34:38.632Z,96987.78
2023-03-03T11:36:06.350Z,96989.06
2023-03-03T11:37:28.510Z,96988.19
2023-03-03T11:38:48.976Z,96988.06
2023-03-03T11:39:53.048Z,96982.63
2023-03-03T11:40:59.428Z,96976.06
2023-03-03T11:42:08.891Z,96979.19
2023-03-03T11:43:23.329Z,96975.09
2023-03-03T11:44:39.237Z,96971.53
2023-03-03T11:45:47.087Z,96975.06
2023-03-03T11:46:54.171Z,96972.88
2023-03-03T11:47:56.169Z,96975.63
2023-03-03T11:49:04.816Z,96969.69
2023-03-03T11:50:18.460Z,96974.44
2023-03-03T11:51:24.448Z,96970.69
2023-03-03T11:52:32.916Z,96962.66
2023-03-03T11:53:42.358Z,96974.59
2023-03-03T11:54:44.195Z,96965.63
2023-03-03T11:55:49.224Z,96964.00
2023-03-03T11:56:52.909Z,96969.56
2023-03-03T11:58:04.759Z,96959.91
2023-03-03T11:59:12.592Z,96961.06
2023-03-03T12:00:23.813Z,96952.09
2023-03-03T12:01:50.166Z,96951.44
2023-03-03T12:02:58.201Z,96948.94
2023-03-03T12:04:16.153Z,96948.41
2023-03-03T12:05:21.140Z,96950.03
2023-03-03T12:06:42.126Z,96942.84
2023-03-03T12:08:08.832Z,96942.09
2023-03-03T12:09:11.066Z,96947.81
2023-03-03T12:10:12.979Z,96940.28
2023-03-03T12:11:17.938Z,96936.97
2023-03-03T12:12:24.382Z,96937.13
2023-03-03T12:13:32.239Z,96946.78
2023-03-03T12:14:52.904Z,96947.13
2023-03-03T12:16:00.791Z,96939.81
2023-03-03T12:17:11.348Z,96942.69
2023-03-03T12:18:23.726Z,96946.66
2023-03-03T12:19:31.209Z,96944.25
2023-03-03T12:20:38.347Z,96947.81
2023-03-03T12:21:43.233Z,96947.59
2023-03-03T12:23:05.917Z,96948.72
2023-03-03T12:24:27.322Z,96943.25
2023-03-03T12:25:35.505Z,96940.34
2023-03-03T12:26:45.802Z,96939.69
2023-03-03T12:28:09.456Z,96933.94
2023-03-03T12:29:11.409Z,96936.22
2023-03-03T12:30:22.386Z,96934.03
2023-03-03T12:31:37.171Z,96936.56
2023-03-03T12:32:41.875Z,96937.72
2023-03-03T12:33:49.812Z,96931.44
2023-03-03T12:34:54.936Z,96931.97
2023-03-03T12:36:17.159Z,96940.91
2023-03-03T12:37:27.570Z,96932.66
2023-03-03T12:38:41.302Z,96940.84
2023-03-03T12:39:46.603Z,96940.63
2023-03-03T12:41:11.191Z,96936.31
2023-03-03T12:42:19.132Z,96931.44
2023-03-03T12:43:24.063Z,96936.06
2023-03-03T12:44:31.833Z,96936.50
2023-03-03T12:45:38.705Z,96931.13
2023-03-03T12:46:59.567Z,96927.53
2023-03-03T12:48:07.111Z,96918.25
2023-03-03T12:49:09.125Z,96924.69
2023-03-03T12:50:11.231Z,96923.59